sensor_id;sensor_type;location;lat;lon;timestamp;pressure;altitude;pressure_sealevel;temperature;humidity
76637;BME280;65532;52.124;5.480;2023-07-13T00:01:53;101312.13;;;16.17;86.20
76637;BME280;65532;52.124;5.480;2023-07-13T00:04:22;101302.78;;;16.13;86.90
76637;BME280;65532;52.124;5.480;2023-07-13T00:06:49;101309.25;;;16.07;86.96
76637;BME280;65532;52.124;5.480;2023-07-13T00:09:17;101301.84;;;16.02;87.03
76637;BME280;65532;52.124;5.480;2023-07-13T00:11:45;101301.28;;;16.00;87.40
76637;BME280;65532;52.124;5.480;2023-07-13T00:14:13;101309.41;;;15.95;87.35
76637;BME280;65532;52.124;5.480;2023-07-13T00:16:42;101311.25;;;15.90;87.65
76637;BME280;65532;52.124;5.480;2023-07-13T00:19:11;101306.31;;;15.86;87.55
76637;BME280;65532;52.124;5.480;2023-07-13T00:21:42;101307.66;;;15.84;87.68
76637;BME280;65532;52.124;5.480;2023-07-13T00:24:11;101303.78;;;15.80;87.85
76637;BME280;65532;52.124;5.480;2023-07-13T00:26:42;101303.69;;;15.75;87.86
76637;BME280;65532;52.124;5.480;2023-07-13T00:29:12;101310.50;;;15.72;87.74
76637;BME280;65532;52.124;5.480;2023-07-13T00:31:40;101315.38;;;15.70;88.07
76637;BME280;65532;52.124;5.480;2023-07-13T00:34:06;101319.44;;;15.68;87.97
76637;BME280;65532;52.124;5.480;2023-07-13T00:36:33;101313.69;;;15.64;88.42
76637;BME280;65532;52.124;5.480;2023-07-13T00:39:00;101320.22;;;15.63;88.48
76637;BME280;65532;52.124;5.480;2023-07-13T00:41:27;101304.53;;;15.58;88.51
76637;BME280;65532;52.124;5.480;2023-07-13T00:43:53;101308.63;;;15.56;88.95
76637;BME280;65532;52.124;5.480;2023-07-13T00:46:27;101306.66;;;15.51;89.14
76637;BME280;65532;52.124;5.480;2023-07-13T00:49:00;101306.34;;;15.48;89.45
76637;BME280;65532;52.124;5.480;2023-07-13T00:51:32;101306.25;;;15.43;89.49
76637;BME280;65532;52.124;5.480;2023-07-13T00:54:04;101308.41;;;15.41;89.86
76637;BME280;65532;52.124;5.480;2023-07-13T00:56:32;101311.06;;;15.36;89.77
76637;BME280;65532;52.124;5.480;2023-07-13T00:59:00;101313.47;;;15.32;90.04
76637;BME280;65532;52.124;5.480;2023-07-13T01:01:29;101310.41;;;15.28;89.91
76637;BME280;65532;52.124;5.480;2023-07-13T01:03:55;101313.91;;;15.24;90.20
76637;BME280;65532;52.124;5.480;2023-07-13T01:06:24;101307.28;;;15.20;90.40
76637;BME280;65532;52.124;5.480;2023-07-13T01:08:51;101306.38;;;15.14;90.32
76637;BME280;65532;52.124;5.480;2023-07-13T01:11:20;101304.66;;;15.08;90.65
76637;BME280;65532;52.124;5.480;2023-07-13T01:13:49;101300.53;;;15.06;90.59
76637;BME280;65532;52.124;5.480;2023-07-13T01:16:25;101304.03;;;15.01;90.86
76637;BME280;65532;52.124;5.480;2023-07-13T01:18:54;101312.34;;;14.94;90.88
76637;BME280;65532;52.124;5.480;2023-07-13T01:21:25;101320.22;;;14.91;90.99
76637;BME280;65532;52.124;5.480;2023-07-13T01:23:52;101326.16;;;14.88;91.01
76637;BME280;65532;52.124;5.480;2023-07-13T01:26:20;101310.31;;;14.85;91.37
76637;BME280;65532;52.124;5.480;2023-07-13T01:28:47;101323.34;;;14.83;91.31
76637;BME280;65532;52.124;5.480;2023-07-13T01:31:13;101319.22;;;14.80;91.22
76637;BME280;65532;52.124;5.480;2023-07-13T01:33:40;101320.53;;;14.78;91.13
76637;BME280;65532;52.124;5.480;2023-07-13T01:36:09;101309.31;;;14.74;91.34
76637;BME280;65532;52.124;5.480;2023-07-13T01:38:37;101319.88;;;14.71;91.43
76637;BME280;65532;52.124;5.480;2023-07-13T01:41:04;101320.38;;;14.67;91.86
76637;BME280;65532;52.124;5.480;2023-07-13T01:43:31;101315.41;;;14.64;91.60
76637;BME280;65532;52.124;5.480;2023-07-13T01:45:58;101317.53;;;14.62;91.65
76637;BME280;65532;52.124;5.480;2023-07-13T01:48:45;101315.31;;;14.59;91.56
76637;BME280;65532;52.124;5.480;2023-07-13T01:51:12;101318.53;;;14.56;91.88
76637;BME280;65532;52.124;5.480;2023-07-13T01:53:39;101320.69;;;14.54;91.80
76637;BME280;65532;52.124;5.480;2023-07-13T01:56:06;101317.59;;;14.51;91.85
76637;BME280;65532;52.124;5.480;2023-07-13T01:58:33;101323.56;;;14.48;91.83
76637;BME280;65532;52.124;5.480;2023-07-13T02:00:59;101322.97;;;14.46;91.98
76637;BME280;65532;52.124;5.480;2023-07-13T02:03:27;101316.94;;;14.44;92.15
76637;BME280;65532;52.124;5.480;2023-07-13T02:05:53;101328.88;;;14.43;91.97
76637;BME280;65532;52.124;5.480;2023-07-13T02:08:20;101314.94;;;14.39;91.97
76637;BME280;65532;52.124;5.480;2023-07-13T02:10:47;101322.28;;;14.38;92.01
76637;BME280;65532;52.124;5.480;2023-07-13T02:13:13;101335.31;;;14.36;91.85
76637;BME280;65532;52.124;5.480;2023-07-13T02:15:40;101333.06;;;14.33;92.13
76637;BME280;65532;52.124;5.480;2023-07-13T02:18:07;101334.97;;;14.33;91.90
76637;BME280;65532;52.124;5.480;2023-07-13T02:20:34;101340.91;;;14.30;91.98
76637;BME280;65532;52.124;5.480;2023-07-13T02:23:00;101332.16;;;14.28;91.95
76637;BME280;65532;52.124;5.480;2023-07-13T02:25:27;101331.31;;;14.27;91.93
76637;BME280;65532;52.124;5.480;2023-07-13T02:27:54;101330.75;;;14.25;91.99
76637;BME280;65532;52.124;5.480;2023-07-13T02:30:20;101331.81;;;14.24;91.92
76637;BME280;65532;52.124;5.480;2023-07-13T02:32:49;101334.78;;;14.23;91.81
76637;BME280;65532;52.124;5.480;2023-07-13T02:35:16;101336.94;;;14.21;91.88
76637;BME280;65532;52.124;5.480;2023-07-13T02:37:43;101339.28;;;14.17;91.69
76637;BME280;65532;52.124;5.480;2023-07-13T02:40:10;101336.22;;;14.14;91.79
76637;BME280;65532;52.124;5.480;2023-07-13T02:42:37;101340.03;;;14.13;91.25
76637;BME280;65532;52.124;5.480;2023-07-13T02:45:06;101349.28;;;14.12;91.16
76637;BME280;65532;52.124;5.480;2023-07-13T02:47:33;101338.03;;;14.08;91.12
76637;BME280;65532;52.124;5.480;2023-07-13T02:50:01;101336.16;;;14.08;91.24
76637;BME280;65532;52.124;5.480;2023-07-13T02:52:28;101342.66;;;14.07;90.68
76637;BME280;65532;52.124;5.480;2023-07-13T02:54:54;101333.91;;;14.05;90.65
76637;BME280;65532;52.124;5.480;2023-07-13T02:57:21;101333.31;;;14.03;90.30
76637;BME280;65532;52.124;5.480;2023-07-13T02:59:47;101337.09;;;14.02;89.97
76637;BME280;65532;52.124;5.480;2023-07-13T03:02:15;101335.44;;;14.01;89.71
76637;BME280;65532;52.124;5.480;2023-07-13T03:04:42;101338.66;;;13.98;89.57
76637;BME280;65532;52.124;5.480;2023-07-13T03:07:08;101340.56;;;13.98;89.21
76637;BME280;65532;52.124;5.480;2023-07-13T03:09:36;101350.63;;;13.97;88.76
76637;BME280;65532;52.124;5.480;2023-07-13T03:12:05;101349.78;;;13.97;88.66
76637;BME280;65532;52.124;5.480;2023-07-13T03:14:32;101352.75;;;13.95;87.99
76637;BME280;65532;52.124;5.480;2023-07-13T03:17:00;101348.38;;;13.94;87.54
76637;BME280;65532;52.124;5.480;2023-07-13T03:19:30;101351.09;;;13.94;87.09
76637;BME280;65532;52.124;5.480;2023-07-13T03:21:57;101346.72;;;13.93;86.77
76637;BME280;65532;52.124;5.480;2023-07-13T03:24:24;101348.03;;;13.91;86.24
76637;BME280;65532;52.124;5.480;2023-07-13T03:26:52;101349.69;;;13.92;85.79
76637;BME280;65532;52.124;5.480;2023-07-13T03:29:19;101358.09;;;13.90;85.28
76637;BME280;65532;52.124;5.480;2023-07-13T03:31:46;101361.06;;;13.89;84.53
76637;BME280;65532;52.124;5.480;2023-07-13T03:34:13;101371.09;;;13.88;83.97
76637;BME280;65532;52.124;5.480;2023-07-13T03:36:40;101374.91;;;13.87;83.39
76637;BME280;65532;52.124;5.480;2023-07-13T03:39:10;101373.25;;;13.86;82.93
76637;BME280;65532;52.124;5.480;2023-07-13T03:41:45;101373.25;;;13.86;82.67
76637;BME280;65532;52.124;5.480;2023-07-13T03:44:12;101376.19;;;13.85;82.00
76637;BME280;65532;52.124;5.480;2023-07-13T03:46:39;101382.47;;;13.85;81.42
76637;BME280;65532;52.124;5.480;2023-07-13T03:49:08;101377.03;;;13.85;80.74
76637;BME280;65532;52.124;5.480;2023-07-13T03:51:35;101378.69;;;13.86;80.42
76637;BME280;65532;52.124;5.480;2023-07-13T03:54:02;101387.44;;;13.88;80.16
76637;BME280;65532;52.124;5.480;2023-07-13T03:56:30;101383.66;;;13.89;79.78
76637;BME280;65532;52.124;5.480;2023-07-13T03:58:57;101386.41;;;13.89;79.65
76637;BME280;65532;52.124;5.480;2023-07-13T04:01:24;101389.94;;;13.90;79.32
76637;BME280;65532;52.124;5.480;2023-07-13T04:03:54;101391.59;;;13.91;78.66
76637;BME280;65532;52.124;5.480;2023-07-13T04:06:26;101404.00;;;13.98;78.20
76637;BME280;65532;52.124;5.480;2023-07-13T04:08:55;101400.34;;;14.04;78.42
76637;BME280;65532;52.124;5.480;2023-07-13T04:11:24;101400.44;;;14.09;79.30
76637;BME280;65532;52.124;5.480;2023-07-13T04:13:51;101403.41;;;14.08;80.10
76637;BME280;65532;52.124;5.480;2023-07-13T04:16:19;101400.91;;;14.06;79.73
76637;BME280;65532;52.124;5.480;2023-07-13T04:18:46;101404.22;;;14.08;79.58
76637;BME280;65532;52.124;5.480;2023-07-13T04:21:14;101401.50;;;14.08;79.16
76637;BME280;65532;52.124;5.480;2023-07-13T04:23:41;101394.97;;;14.09;79.13
76637;BME280;65532;52.124;5.480;2023-07-13T04:26:08;101396.88;;;14.09;79.24
76637;BME280;65532;52.124;5.480;2023-07-13T04:28:36;101408.59;;;14.09;79.24
76637;BME280;65532;52.124;5.480;2023-07-13T04:31:03;101411.31;;;14.09;79.12
76637;BME280;65532;52.124;5.480;2023-07-13T04:33:29;101412.97;;;14.11;78.73
76637;BME280;65532;52.124;5.480;2023-07-13T04:35:57;101411.41;;;14.15;78.58
76637;BME280;65532;52.124;5.480;2023-07-13T04:38:26;101412.00;;;14.17;78.56
76637;BME280;65532;52.124;5.480;2023-07-13T04:41:02;101412.38;;;14.20;78.37
76637;BME280;65532;52.124;5.480;2023-07-13T04:43:30;101416.00;;;14.26;78.36
76637;BME280;65532;52.124;5.480;2023-07-13T04:45:57;101409.09;;;14.35;78.83
76637;BME280;65532;52.124;5.480;2023-07-13T04:48:24;101409.78;;;14.42;78.78
76637;BME280;65532;52.124;5.480;2023-07-13T04:50:57;101406.94;;;14.49;79.63
76637;BME280;65532;52.124;5.480;2023-07-13T04:53:25;101415.00;;;14.55;80.39
76637;BME280;65532;52.124;5.480;2023-07-13T04:55:52;101413.19;;;14.61;80.25
76637;BME280;65532;52.124;5.480;2023-07-13T04:58:18;101403.19;;;14.66;80.90
76637;BME280;65532;52.124;5.480;2023-07-13T05:00:45;101403.31;;;14.72;80.89
76637;BME280;65532;52.124;5.480;2023-07-13T05:03:12;101402.06;;;14.79;81.29
76637;BME280;65532;52.124;5.480;2023-07-13T05:05:38;101401.56;;;14.82;81.84
76637;BME280;65532;52.124;5.480;2023-07-13T05:08:05;101407.47;;;14.91;81.93
76637;BME280;65532;52.124;5.480;2023-07-13T05:10:34;101406.56;;;15.02;82.69
76637;BME280;65532;52.124;5.480;2023-07-13T05:13:01;101418.38;;;15.08;83.23
76637;BME280;65532;52.124;5.480;2023-07-13T05:15:27;101419.53;;;15.12;83.64
76637;BME280;65532;52.124;5.480;2023-07-13T05:17:54;101423.19;;;15.17;84.04
76637;BME280;65532;52.124;5.480;2023-07-13T05:20:20;101425.75;;;15.24;83.96
76637;BME280;65532;52.124;5.480;2023-07-13T05:22:47;101431.06;;;15.31;84.26
76637;BME280;65532;52.124;5.480;2023-07-13T05:25:14;101436.09;;;15.39;84.65
76637;BME280;65532;52.124;5.480;2023-07-13T05:27:41;101440.19;;;15.58;85.27
76637;BME280;65532;52.124;5.480;2023-07-13T05:30:08;101433.09;;;15.57;86.58
76637;BME280;65532;52.124;5.480;2023-07-13T05:32:37;101435.56;;;15.75;86.71
76637;BME280;65532;52.124;5.480;2023-07-13T05:35:04;101440.19;;;15.92;86.75
76637;BME280;65532;52.124;5.480;2023-07-13T05:37:31;101437.19;;;15.93;88.92
76637;BME280;65532;52.124;5.480;2023-07-13T05:39:58;101440.75;;;15.94;89.30
76637;BME280;65532;52.124;5.480;2023-07-13T05:42:25;101442.84;;;15.86;89.19
76637;BME280;65532;52.124;5.480;2023-07-13T05:44:51;101448.63;;;15.90;88.74
76637;BME280;65532;52.124;5.480;2023-07-13T05:47:18;101453.47;;;16.05;87.73
76637;BME280;65532;52.124;5.480;2023-07-13T05:49:45;101456.59;;;16.13;89.30
76637;BME280;65532;52.124;5.480;2023-07-13T05:52:11;101460.91;;;16.09;89.48
76637;BME280;65532;52.124;5.480;2023-07-13T05:54:38;101453.69;;;16.20;89.10
76637;BME280;65532;52.124;5.480;2023-07-13T05:57:05;101459.91;;;16.15;89.67
76637;BME280;65532;52.124;5.480;2023-07-13T05:59:31;101461.31;;;16.18;89.21
76637;BME280;65532;52.124;5.480;2023-07-13T06:01:58;101471.22;;;16.24;89.04
76637;BME280;65532;52.124;5.480;2023-07-13T06:04:25;101471.81;;;16.26;89.50
76637;BME280;65532;52.124;5.480;2023-07-13T06:06:51;101479.25;;;16.31;89.53
76637;BME280;65532;52.124;5.480;2023-07-13T06:09:19;101471.34;;;16.34;89.35
76637;BME280;65532;52.124;5.480;2023-07-13T06:11:45;101478.72;;;16.56;87.98
76637;BME280;65532;52.124;5.480;2023-07-13T06:14:12;101478.59;;;16.89;90.41
76637;BME280;65532;52.124;5.480;2023-07-13T06:16:39;101488.38;;;16.85;91.18
76637;BME280;65532;52.124;5.480;2023-07-13T06:19:06;101492.16;;;16.79;91.48
76637;BME280;65532;52.124;5.480;2023-07-13T06:21:33;101488.09;;;17.09;90.81
76637;BME280;65532;52.124;5.480;2023-07-13T06:23:59;101491.38;;;17.11;91.68
76637;BME280;65532;52.124;5.480;2023-07-13T06:26:26;101490.44;;;17.27;91.61
76637;BME280;65532;52.124;5.480;2023-07-13T06:28:54;101496.53;;;17.34;91.81
76637;BME280;65532;52.124;5.480;2023-07-13T06:31:21;101495.56;;;17.18;91.96
76637;BME280;65532;52.124;5.480;2023-07-13T06:33:47;101507.16;;;17.03;92.07
76637;BME280;65532;52.124;5.480;2023-07-13T06:36:14;101510.66;;;16.94;91.97
76637;BME280;65532;52.124;5.480;2023-07-13T06:38:41;101509.34;;;17.01;91.87
76637;BME280;65532;52.124;5.480;2023-07-13T06:41:08;101506.72;;;17.12;91.80
76637;BME280;65532;52.124;5.480;2023-07-13T06:43:35;101508.09;;;17.14;91.92
76637;BME280;65532;52.124;5.480;2023-07-13T06:46:02;101501.81;;;17.14;92.06
76637;BME280;65532;52.124;5.480;2023-07-13T06:48:29;101504.81;;;17.12;92.16
76637;BME280;65532;52.124;5.480;2023-07-13T06:50:56;101499.19;;;17.24;91.90
76637;BME280;65532;52.124;5.480;2023-07-13T06:53:23;101506.97;;;17.37;91.93
76637;BME280;65532;52.124;5.480;2023-07-13T06:55:50;101511.09;;;17.40;91.94
76637;BME280;65532;52.124;5.480;2023-07-13T06:58:18;101508.66;;;17.43;91.84
76637;BME280;65532;52.124;5.480;2023-07-13T07:00:46;101515.31;;;17.52;91.81
76637;BME280;65532;52.124;5.480;2023-07-13T07:03:13;101501.97;;;17.61;91.95
76637;BME280;65532;52.124;5.480;2023-07-13T07:05:40;101509.25;;;17.77;91.73
76637;BME280;65532;52.124;5.480;2023-07-13T07:08:06;101515.78;;;18.13;91.60
76637;BME280;65532;52.124;5.480;2023-07-13T07:10:34;101520.84;;;18.32;91.04
76637;BME280;65532;52.124;5.480;2023-07-13T07:13:01;101513.66;;;18.25;90.76
76637;BME280;65532;52.124;5.480;2023-07-13T07:15:27;101531.72;;;18.16;90.99
76637;BME280;65532;52.124;5.480;2023-07-13T07:17:54;101532.47;;;18.12;91.00
76637;BME280;65532;52.124;5.480;2023-07-13T07:20:21;101533.38;;;18.22;90.80
76637;BME280;65532;52.124;5.480;2023-07-13T07:22:48;101540.84;;;18.32;90.04
76637;BME280;65532;52.124;5.480;2023-07-13T07:25:15;101527.69;;;18.34;90.18
76637;BME280;65532;52.124;5.480;2023-07-13T07:27:42;101541.13;;;18.36;89.73
76637;BME280;65532;52.124;5.480;2023-07-13T07:30:12;101538.41;;;18.41;90.19
76637;BME280;65532;52.124;5.480;2023-07-13T07:32:42;101544.72;;;18.41;90.12
76637;BME280;65532;52.124;5.480;2023-07-13T07:35:23;101541.13;;;18.36;90.13
76637;BME280;65532;52.124;5.480;2023-07-13T07:37:49;101546.00;;;18.23;90.68
76637;BME280;65532;52.124;5.480;2023-07-13T07:40:17;101543.00;;;18.25;91.11
76637;BME280;65532;52.124;5.480;2023-07-13T07:42:47;101537.78;;;18.23;91.10
76637;BME280;65532;52.124;5.480;2023-07-13T07:45:14;101536.38;;;18.21;91.57
76637;BME280;65532;52.124;5.480;2023-07-13T07:47:41;101539.88;;;18.11;91.32
76637;BME280;65532;52.124;5.480;2023-07-13T07:50:08;101529.69;;;18.02;91.71
76637;BME280;65532;52.124;5.480;2023-07-13T07:52:35;101534.34;;;18.01;91.58
76637;BME280;65532;52.124;5.480;2023-07-13T07:55:04;101522.03;;;18.04;91.67
76637;BME280;65532;52.124;5.480;2023-07-13T07:57:34;101528.38;;;18.09;91.63
76637;BME280;65532;52.124;5.480;2023-07-13T08:00:20;101522.41;;;18.17;91.79
76637;BME280;65532;52.124;5.480;2023-07-13T08:02:50;101522.41;;;18.17;91.73
76637;BME280;65532;52.124;5.480;2023-07-13T08:05:20;101518.78;;;18.12;91.41
76637;BME280;65532;52.124;5.480;2023-07-13T08:08:06;101517.19;;;18.16;91.88
76637;BME280;65532;52.124;5.480;2023-07-13T08:10:35;101525.50;;;18.31;90.99
76637;BME280;65532;52.124;5.480;2023-07-13T08:13:03;101520.25;;;18.30;90.98
76637;BME280;65532;52.124;5.480;2023-07-13T08:15:33;101527.38;;;18.78;90.53
76637;BME280;65532;52.124;5.480;2023-07-13T08:17:59;101531.88;;;19.09;89.03
76637;BME280;65532;52.124;5.480;2023-07-13T08:20:26;101531.63;;;19.31;88.31
76637;BME280;65532;52.124;5.480;2023-07-13T08:22:52;101538.81;;;19.73;87.39
76637;BME280;65532;52.124;5.480;2023-07-13T08:25:19;101524.47;;;20.12;85.86
76637;BME280;65532;52.124;5.480;2023-07-13T08:27:47;101523.00;;;20.55;84.89
76637;BME280;65532;52.124;5.480;2023-07-13T08:30:13;101522.47;;;20.32;83.73
76637;BME280;65532;52.124;5.480;2023-07-13T08:32:40;101529.16;;;20.11;83.01
76637;BME280;65532;52.124;5.480;2023-07-13T08:35:07;101522.88;;;19.90;82.67
76637;BME280;65532;52.124;5.480;2023-07-13T08:37:33;101541.00;;;19.71;81.59
76637;BME280;65532;52.124;5.480;2023-07-13T08:40:00;101521.75;;;19.81;81.91
76637;BME280;65532;52.124;5.480;2023-07-13T08:42:37;101522.25;;;20.19;80.83
76637;BME280;65532;52.124;5.480;2023-07-13T08:45:19;101513.00;;;20.74;79.93
76637;BME280;65532;52.124;5.480;2023-07-13T08:48:02;101517.13;;;21.21;77.35
76637;BME280;65532;52.124;5.480;2023-07-13T08:50:41;101525.25;;;21.02;74.54
76637;BME280;65532;52.124;5.480;2023-07-13T08:53:29;101524.56;;;20.76;74.23
76637;BME280;65532;52.124;5.480;2023-07-13T08:55:59;101539.63;;;20.89;72.95
76637;BME280;65532;52.124;5.480;2023-07-13T08:58:27;101557.78;;;20.90;71.40
76637;BME280;65532;52.124;5.480;2023-07-13T09:01:06;101548.53;;;20.71;71.31
76637;BME280;65532;52.124;5.480;2023-07-13T09:03:55;101551.94;;;20.37;71.30
76637;BME280;65532;52.124;5.480;2023-07-13T09:06:43;101551.97;;;20.07;70.68
76637;BME280;65532;52.124;5.480;2023-07-13T09:09:32;101557.78;;;19.74;70.89
76637;BME280;65532;52.124;5.480;2023-07-13T09:12:55;101572.88;;;19.57;72.18
76637;BME280;65532;52.124;5.480;2023-07-13T09:14:56;101566.78;;;19.39;73.88
76637;BME280;65532;52.124;5.480;2023-07-13T09:17:27;101565.13;;;19.38;76.04
76637;BME280;65532;52.124;5.480;2023-07-13T09:23:01;101553.84;;;19.40;76.89
76637;BME280;65532;52.124;5.480;2023-07-13T09:25:33;101558.53;;;19.39;78.42
76637;BME280;65532;52.124;5.480;2023-07-13T09:28:20;101560.75;;;19.42;79.75
76637;BME280;65532;52.124;5.480;2023-07-13T09:30:50;101554.97;;;19.39;79.36
76637;BME280;65532;52.124;5.480;2023-07-13T09:33:21;101540.94;;;19.30;78.45
76637;BME280;65532;52.124;5.480;2023-07-13T09:35:49;101551.09;;;19.40;79.40
76637;BME280;65532;52.124;5.480;2023-07-13T09:38:18;101555.56;;;19.61;78.71
76637;BME280;65532;52.124;5.480;2023-07-13T09:43:20;101544.81;;;20.16;77.29
76637;BME280;65532;52.124;5.480;2023-07-13T09:45:47;101544.50;;;20.38;76.33
76637;BME280;65532;52.124;5.480;2023-07-13T09:48:15;101554.66;;;20.47;75.87
76637;BME280;65532;52.124;5.480;2023-07-13T09:50:43;101550.25;;;20.51;75.29
76637;BME280;65532;52.124;5.480;2023-07-13T09:53:15;101559.88;;;20.33;74.12
76637;BME280;65532;52.124;5.480;2023-07-13T09:55:47;101567.06;;;20.24;74.65
76637;BME280;65532;52.124;5.480;2023-07-13T09:58:24;101576.16;;;19.99;74.44
76637;BME280;65532;52.124;5.480;2023-07-13T10:00:56;101602.00;;;19.68;77.60
76637;BME280;65532;52.124;5.480;2023-07-13T10:03:29;101615.63;;;19.22;80.12
76637;BME280;65532;52.124;5.480;2023-07-13T10:06:09;101608.72;;;18.57;84.30
76637;BME280;65532;52.124;5.480;2023-07-13T10:08:37;101605.66;;;18.11;85.38
76637;BME280;65532;52.124;5.480;2023-07-13T10:11:29;101600.13;;;18.01;88.64
76637;BME280;65532;52.124;5.480;2023-07-13T10:13:59;101602.44;;;18.19;90.41
76637;BME280;65532;52.124;5.480;2023-07-13T10:16:28;101602.69;;;18.60;90.67
76637;BME280;65532;52.124;5.480;2023-07-13T10:19:17;101596.94;;;19.24;90.54
76637;BME280;65532;52.124;5.480;2023-07-13T10:26:56;101604.19;;;20.32;89.48
76637;BME280;65532;52.124;5.480;2023-07-13T10:29:27;101605.28;;;20.31;87.57
76637;BME280;65532;52.124;5.480;2023-07-13T10:31:55;101597.59;;;20.53;88.73
76637;BME280;65532;52.124;5.480;2023-07-13T10:34:24;101595.31;;;20.66;87.81
76637;BME280;65532;52.124;5.480;2023-07-13T10:36:51;101595.25;;;20.86;85.73
76637;BME280;65532;52.124;5.480;2023-07-13T10:39:27;101589.81;;;21.30;84.71
76637;BME280;65532;52.124;5.480;2023-07-13T10:41:59;101600.63;;;21.61;82.63
76637;BME280;65532;52.124;5.480;2023-07-13T10:44:30;101586.66;;;21.52;79.72
76637;BME280;65532;52.124;5.480;2023-07-13T10:47:00;101596.06;;;21.46;81.09
76637;BME280;65532;52.124;5.480;2023-07-13T10:49:29;101605.00;;;21.28;80.96
76637;BME280;65532;52.124;5.480;2023-07-13T10:51:56;101609.00;;;20.91;79.03
76637;BME280;65532;52.124;5.480;2023-07-13T10:57:08;101607.75;;;20.58;76.60
76637;BME280;65532;52.124;5.480;2023-07-13T10:59:41;101606.22;;;20.96;76.75
76637;BME280;65532;52.124;5.480;2023-07-13T11:02:12;101613.22;;;21.38;74.75
76637;BME280;65532;52.124;5.480;2023-07-13T11:04:46;101613.06;;;21.63;74.63
76637;BME280;65532;52.124;5.480;2023-07-13T11:07:26;101616.59;;;22.03;74.53
76637;BME280;65532;52.124;5.480;2023-07-13T11:09:58;101619.63;;;22.01;72.83
76637;BME280;65532;52.124;5.480;2023-07-13T11:12:52;101627.47;;;22.23;70.12
76637;BME280;65532;52.124;5.480;2023-07-13T11:15:53;101628.41;;;22.42;67.54
76637;BME280;65532;52.124;5.480;2023-07-13T11:18:23;101632.84;;;22.38;66.04
76637;BME280;65532;52.124;5.480;2023-07-13T11:20:52;101629.66;;;22.26;65.77
76637;BME280;65532;52.124;5.480;2023-07-13T11:23:27;101627.53;;;22.71;65.70
76637;BME280;65532;52.124;5.480;2023-07-13T11:25:55;101626.22;;;22.92;64.10
76637;BME280;65532;52.124;5.480;2023-07-13T11:28:24;101632.13;;;22.57;64.05
76637;BME280;65532;52.124;5.480;2023-07-13T11:33:52;101618.69;;;22.74;64.80
76637;BME280;65532;52.124;5.480;2023-07-13T11:36:23;101623.38;;;22.97;64.39
76637;BME280;65532;52.124;5.480;2023-07-13T11:39:29;101613.38;;;22.78;63.69
76637;BME280;65532;52.124;5.480;2023-07-13T11:42:00;101615.13;;;22.45;63.48
76637;BME280;65532;52.124;5.480;2023-07-13T11:44:30;101615.00;;;22.31;64.86
76637;BME280;65532;52.124;5.480;2023-07-13T11:46:59;101630.22;;;22.23;65.58
76637;BME280;65532;52.124;5.480;2023-07-13T11:49:31;101653.72;;;21.81;66.06
76637;BME280;65532;52.124;5.480;2023-07-13T11:51:59;101647.78;;;21.64;69.15
76637;BME280;65532;52.124;5.480;2023-07-13T11:54:30;101643.47;;;21.43;69.39
76637;BME280;65532;52.124;5.480;2023-07-13T11:57:00;101654.03;;;21.20;69.06
76637;BME280;65532;52.124;5.480;2023-07-13T11:59:29;101644.75;;;21.06;70.55
76637;BME280;65532;52.124;5.480;2023-07-13T12:01:56;101643.38;;;20.99;71.22
76637;BME280;65532;52.124;5.480;2023-07-13T12:04:28;101642.06;;;20.86;71.43
76637;BME280;65532;52.124;5.480;2023-07-13T12:07:04;101649.78;;;20.79;72.77
76637;BME280;65532;52.124;5.480;2023-07-13T12:09:33;101650.31;;;20.81;74.20
76637;BME280;65532;52.124;5.480;2023-07-13T12:12:00;101642.34;;;20.84;75.20
76637;BME280;65532;52.124;5.480;2023-07-13T12:14:27;101640.09;;;20.97;76.82
76637;BME280;65532;52.124;5.480;2023-07-13T12:16:55;101648.28;;;21.12;77.12
76637;BME280;65532;52.124;5.480;2023-07-13T12:19:26;101643.75;;;21.46;77.02
76637;BME280;65532;52.124;5.480;2023-07-13T12:21:56;101645.34;;;21.97;76.51
76637;BME280;65532;52.124;5.480;2023-07-13T12:24:24;101647.09;;;21.82;74.76
76637;BME280;65532;52.124;5.480;2023-07-13T12:30:00;101655.72;;;21.71;74.78
76637;BME280;65532;52.124;5.480;2023-07-13T12:32:27;101645.66;;;21.51;75.26
76637;BME280;65532;52.124;5.480;2023-07-13T12:35:12;101646.28;;;21.38;77.17
76637;BME280;65532;52.124;5.480;2023-07-13T12:37:44;101649.56;;;21.40;77.20
76637;BME280;65532;52.124;5.480;2023-07-13T12:40:17;101651.22;;;21.41;76.73
76637;BME280;65532;52.124;5.480;2023-07-13T12:42:51;101640.75;;;21.38;75.51
76637;BME280;65532;52.124;5.480;2023-07-13T12:45:27;101652.66;;;21.72;75.47
76637;BME280;65532;52.124;5.480;2023-07-13T12:48:02;101648.63;;;22.33;75.11
76637;BME280;65532;52.124;5.480;2023-07-13T12:50:40;101635.69;;;22.81;73.20
76637;BME280;65532;52.124;5.480;2023-07-13T12:53:15;101640.66;;;23.08;72.17
76637;BME280;65532;52.124;5.480;2023-07-13T12:55:57;101639.72;;;22.94;69.18
76637;BME280;65532;52.124;5.480;2023-07-13T12:58:31;101644.22;;;22.61;69.98
76637;BME280;65532;52.124;5.480;2023-07-13T13:01:01;101644.22;;;22.32;68.91
76637;BME280;65532;52.124;5.480;2023-07-13T13:03:37;101643.22;;;22.76;67.46
76637;BME280;65532;52.124;5.480;2023-07-13T13:06:25;101633.44;;;23.31;66.08
76637;BME280;65532;52.124;5.480;2023-07-13T13:08:55;101647.31;;;23.69;64.26
76637;BME280;65532;52.124;5.480;2023-07-13T13:11:23;101637.81;;;23.75;63.24
76637;BME280;65532;52.124;5.480;2023-07-13T13:13:50;101647.06;;;23.65;62.39
76637;BME280;65532;52.124;5.480;2023-07-13T13:16:21;101649.50;;;23.29;62.66
76637;BME280;65532;52.124;5.480;2023-07-13T13:18:50;101642.31;;;23.09;62.76
76637;BME280;65532;52.124;5.480;2023-07-13T13:21:18;101643.38;;;22.89;63.03
76637;BME280;65532;52.124;5.480;2023-07-13T13:23:45;101634.66;;;22.77;63.28